Piraeus, Greece
Current Conditions -  °F | °C
As of 9:20 AM on Wednesday 22 Oct 2014 (Local Time) from LGEL Reporting Station
Clear Clear  
Wind Chill: 63°   Ceiling: Unl
Heat Index: 63°   Visibility: 6mi
Dew Point: 54°   Wind: 0mph
Humidity: 72%   Direction: NA
Pressure: 29.8"   Gusts: NA
Location:  37.95°N, 23.63°E
Report Text: LGEL 220620Z 00000KT CAVOK 17/12 Q1009
Loading
Personal Weather Stations






























Interactive Weather Map
Tropical Storm Tracking
New forecast layout! Learn more

10-Day Weather Forecast

Advertisements
Track Severe Weather on mobile